Weather History for Clermont County, Batavia, OH

Change the Weather History Date:

Thursday, March 20, 2014

  Actual Average (KLUK) Record (KLUK)
Temperature  
Mean Temperature 44 °F -  
Max Temperature 53 °F 56 °F 84 °F (2012)
Min Temperature 35 °F 36 °F 19 °F (1965)
Degree Days  
Heating Degree Days 21    
Moisture  
Dew Point 30 °F    
Average Humidity 58    
Maximum Humidity 75    
Minimum Humidity 41    
Precipitation  
Precipitation 0.00 in - - ()
Sea Level Pressure  
Sea Level Pressure 30.05 in    
Wind  
Wind Speed 10 mph (West)    
Max Wind Speed 16 mph    
Max Gust Speed 23 mph    
Visibility 10 miles    
Events      
Averages and records for this station are not official NWS values.
T = Trace of Precipitation, MM = Missing Value Source: NWS Daily Summary

Daily Weather History Graph

Daily Weather History Graph

Search for Another Location

Airport:

Trip Planner

Search our weather history database for the weather conditions in past years. The results will help you decide how hot, cold, wet, or windy it might be!

Date:

Astronomy

Mar. 20, 2014 Rise Set
Actual Time 7:40 AM EDT 7:48 PM EDT
Civil Twilight 7:13 AM EDT 8:15 PM EDT
Nautical Twilight 6:42 AM EDT 8:46 PM EDT
Astronomical Twilight 6:10 AM EDT 9:18 PM EDT
Moon No Moon Rise 9:47 AM EDT (3/20)
Length of Visible Light 13h 01m
Length of Day
12h 08m
Waning Gibbous, 84% of the Moon is Illuminated
Mar 20
Waning Gibbous
Mar 23
Last Quarter
Mar 30
New
Apr 7
First Quarter
Apr 15
Full

Hourly Weather History & Observations

Time (EDT) Temp. Windchill Dew Point Humidity Pressure Visibility Wind Dir Wind Speed Gust Speed Precip Events Conditions
12:15 AM 42.8 °F 38.6 °F 33.8 °F 70% 30.02 in 10.0 mi WNW 6.9 mph - N/A   Overcast
12:34 AM 42.8 °F 39.3 °F 33.8 °F 70% 30.02 in 10.0 mi West 5.8 mph - N/A   Overcast
12:55 AM 42.8 °F 37.0 °F 33.8 °F 70% 30.02 in 10.0 mi WNW 10.4 mph - N/A   Overcast
1:15 AM 42.8 °F 37.5 °F 33.8 °F 70% 30.02 in 10.0 mi West 9.2 mph 18.4 mph N/A   Overcast
1:34 AM 42.8 °F 35.4 °F 33.8 °F 70% 30.03 in 10.0 mi WNW 15.0 mph 23.0 mph N/A   Overcast
1:55 AM 41.0 °F 33.5 °F 32.0 °F 70% 30.04 in 10.0 mi WNW 13.8 mph 20.7 mph N/A   Overcast
2:15 AM 39.2 °F 30.8 °F 32.0 °F 75% 30.05 in 10.0 mi WNW 15.0 mph 20.7 mph N/A   Overcast
2:34 AM 39.2 °F 31.6 °F 32.0 °F 75% 30.05 in 10.0 mi WNW 12.7 mph 20.7 mph N/A   Overcast
2:55 AM 37.4 °F 28.2 °F 30.2 °F 75% 30.05 in 10.0 mi West 16.1 mph 19.6 mph N/A   Overcast
3:15 AM 37.4 °F 29.3 °F 30.2 °F 75% 30.04 in 10.0 mi WNW 12.7 mph 16.1 mph N/A   Overcast
3:34 AM 37.4 °F 28.9 °F 30.2 °F 75% 30.04 in 10.0 mi West 13.8 mph 23.0 mph N/A   Overcast
3:55 AM 37.4 °F 30.8 °F 30.2 °F 75% 30.04 in 10.0 mi WNW 9.2 mph - N/A   Overcast
4:14 AM 37.4 °F 29.8 °F 28.4 °F 70% 30.04 in 10.0 mi WNW 11.5 mph 18.4 mph N/A   Overcast
4:34 AM 37.4 °F 31.4 °F 30.2 °F 75% 30.04 in 10.0 mi NW 8.1 mph - N/A   Overcast
4:55 AM 37.4 °F 32.1 °F 28.4 °F 70% 30.05 in 10.0 mi WNW 6.9 mph - N/A   Overcast
5:14 AM 37.4 °F 32.1 °F 28.4 °F 70% 30.05 in 10.0 mi WNW 6.9 mph - N/A   Overcast
5:34 AM 37.4 °F 32.1 °F 28.4 °F 70% 30.06 in 10.0 mi West 6.9 mph - N/A   Overcast
5:55 AM 37.4 °F 33.8 °F 28.4 °F 70% 30.06 in 10.0 mi WNW 4.6 mph - N/A   Overcast
6:14 AM 37.4 °F 31.4 °F 28.4 °F 70% 30.06 in 10.0 mi West 8.1 mph - N/A   Overcast
6:34 AM 37.4 °F 32.1 °F 28.4 °F 70% 30.06 in 10.0 mi West 6.9 mph - N/A   Overcast
6:55 AM 37.4 °F 30.8 °F 28.4 °F 70% 30.06 in 10.0 mi West 9.2 mph - N/A   Overcast
7:14 AM 37.4 °F 30.8 °F 28.4 °F 70% 30.07 in 10.0 mi West 9.2 mph - N/A   Overcast
7:35 AM 37.4 °F 31.4 °F 28.4 °F 70% 30.08 in 10.0 mi West 8.1 mph - N/A   Overcast
7:55 AM 35.6 °F 26.6 °F 28.4 °F 75% 30.09 in 10.0 mi West 13.8 mph - N/A   Overcast
8:14 AM 35.6 °F 28.6 °F 26.6 °F 70% 30.10 in 10.0 mi West 9.2 mph - N/A   Overcast
8:35 AM 35.6 °F 27.5 °F 26.6 °F 70% 30.10 in 10.0 mi West 11.5 mph 16.1 mph N/A   Overcast
8:55 AM 35.6 °F 26.6 °F 26.6 °F 70% 30.10 in 10.0 mi West 13.8 mph - N/A   Mostly Cloudy
9:14 AM 35.6 °F 27.5 °F 26.6 °F 70% 30.10 in 10.0 mi WNW 11.5 mph - N/A   Scattered Clouds
9:35 AM 37.4 °F 28.9 °F 28.4 °F 70% 30.11 in 10.0 mi West 13.8 mph - N/A   Clear
9:55 AM 37.4 °F 28.9 °F 26.6 °F 65% 30.11 in 10.0 mi WNW 13.8 mph 19.6 mph N/A   Clear
10:14 AM 37.4 °F 29.3 °F 28.4 °F 70% 30.12 in 10.0 mi WNW 12.7 mph 16.1 mph N/A   Clear
10:35 AM 39.2 °F 31.6 °F 28.4 °F 65% 30.12 in 10.0 mi WSW 12.7 mph - N/A   Clear
10:55 AM 41.0 °F 34.7 °F 28.4 °F 61% 30.12 in 10.0 mi West 10.4 mph - N/A   Clear
11:14 AM 41.0 °F 37.1 °F 28.4 °F 61% 30.12 in 10.0 mi WSW 5.8 mph - N/A   Clear
11:35 AM 42.8 °F 37.5 °F 28.4 °F 57% 30.11 in 10.0 mi West 9.2 mph - N/A   Clear
11:55 AM 42.8 °F 37.0 °F 28.4 °F 57% 30.12 in 10.0 mi NW 10.4 mph 17.3 mph N/A   Clear
12:14 PM 44.6 °F 40.2 °F 28.4 °F 53% 30.11 in 10.0 mi West 8.1 mph - N/A   Clear
12:35 PM 44.6 °F 38.8 °F 28.4 °F 53% 30.11 in 10.0 mi West 11.5 mph - N/A   Clear
12:55 PM 46.4 °F 41.5 °F 30.2 °F 53% 30.10 in 10.0 mi West 10.4 mph 16.1 mph N/A   Clear
1:14 PM 46.4 °F 41.1 °F 30.2 °F 53% 30.09 in 10.0 mi West 11.5 mph - N/A   Clear
1:35 PM 48.2 °F - 30.2 °F 50% 30.09 in 10.0 mi WNW 11.5 mph 19.6 mph N/A   Clear
1:55 PM 50.0 °F - 30.2 °F 47% 30.08 in 10.0 mi West 12.7 mph 17.3 mph N/A   Clear
2:14 PM 50.0 °F - 30.2 °F 47% 30.07 in 10.0 mi West 12.7 mph - N/A   Scattered Clouds
2:35 PM 50.0 °F - 28.4 °F 43% 30.06 in 10.0 mi WNW 10.4 mph 18.4 mph N/A   Scattered Clouds
2:55 PM 50.0 °F - 30.2 °F 47% 30.05 in 10.0 mi West 11.5 mph 17.3 mph N/A   Scattered Clouds
3:14 PM 51.8 °F - 30.2 °F 44% 30.05 in 10.0 mi WSW 12.7 mph 19.6 mph N/A   Mostly Cloudy
3:35 PM 51.8 °F - 30.2 °F 44% 30.04 in 10.0 mi West 8.1 mph 17.3 mph N/A   Scattered Clouds
3:55 PM 51.8 °F - 30.2 °F 44% 30.04 in 10.0 mi West 12.7 mph 16.1 mph N/A   Mostly Cloudy
4:14 PM 51.8 °F - 30.2 °F 44% 30.03 in 10.0 mi West 11.5 mph 17.3 mph N/A   Overcast
4:35 PM 51.8 °F - 30.2 °F 44% 30.03 in 10.0 mi WSW 12.7 mph - N/A   Overcast
4:54 PM 53.6 °F - 30.2 °F 41% 30.03 in 10.0 mi WNW 10.4 mph 18.4 mph N/A   Overcast
5:15 PM 53.6 °F - 30.2 °F 41% 30.01 in 10.0 mi West 12.7 mph 17.3 mph N/A   Mostly Cloudy
5:35 PM 51.8 °F - 30.2 °F 44% 30.02 in 10.0 mi WSW 12.7 mph 18.4 mph N/A   Mostly Cloudy
5:54 PM 51.8 °F - 30.2 °F 44% 30.02 in 10.0 mi WSW 12.7 mph 17.3 mph N/A   Overcast
6:15 PM 51.8 °F - 30.2 °F 44% 30.02 in 10.0 mi WSW 10.4 mph - N/A   Overcast
6:35 PM 51.8 °F - 30.2 °F 44% 30.02 in 10.0 mi WSW 9.2 mph 16.1 mph N/A   Overcast
6:54 PM 51.8 °F - 30.2 °F 44% 30.02 in 10.0 mi WSW 9.2 mph - N/A   Overcast
7:15 PM 51.8 °F - 30.2 °F 44% 30.02 in 10.0 mi SW 6.9 mph - N/A   Overcast
7:35 PM 51.8 °F - 30.2 °F 44% 30.02 in 10.0 mi SW 5.8 mph - N/A   Overcast
7:54 PM 51.8 °F - 30.2 °F 44% 30.01 in 10.0 mi SW 3.5 mph - N/A   Overcast
8:15 PM 51.8 °F - 30.2 °F 44% 30.01 in 10.0 mi SW 3.5 mph - N/A   Overcast
8:35 PM 51.8 °F - 30.2 °F 44% 30.01 in 10.0 mi SSW 4.6 mph - N/A   Overcast
8:54 PM 51.8 °F - 30.2 °F 44% 30.01 in 10.0 mi Calm Calm - N/A   Overcast
9:15 PM 51.8 °F - 30.2 °F 44% 30.01 in 10.0 mi SW 3.5 mph - N/A   Overcast
9:35 PM 50.0 °F - 30.2 °F 47% 30.02 in 10.0 mi Calm Calm - N/A   Overcast
9:54 PM 50.0 °F - 30.2 °F 47% 30.02 in 10.0 mi SW 3.5 mph - N/A   Overcast
10:15 PM 50.0 °F - 30.2 °F 47% 30.02 in 10.0 mi SW 3.5 mph - N/A   Overcast
10:35 PM 50.0 °F - 30.2 °F 47% 30.02 in 10.0 mi SW 4.6 mph - N/A   Overcast
10:54 PM 50.0 °F - 30.2 °F 47% 30.02 in 10.0 mi SW 4.6 mph - N/A   Overcast
11:15 PM 50.0 °F - 30.2 °F 47% 30.02 in 10.0 mi SW 5.8 mph - N/A   Mostly Cloudy
11:35 PM 50.0 °F - 32.0 °F 50% 30.03 in 10.0 mi SW 6.9 mph - N/A   Mostly Cloudy
11:54 PM 50.0 °F - 30.2 °F 47% 30.03 in 10.0 mi SW 6.9 mph - N/A   Overcast